sensor_id;sensor_type;location;lat;lon;timestamp;P1;durP1;ratioP1;P2;durP2;ratioP2
55082;SDS011;40978;52.850;6.506;2023-06-04T00:02:01;6.38;;;1.83;;
55082;SDS011;40978;52.850;6.506;2023-06-04T00:04:27;8.15;;;1.73;;
55082;SDS011;40978;52.850;6.506;2023-06-04T00:06:53;4.93;;;1.83;;
55082;SDS011;40978;52.850;6.506;2023-06-04T00:09:19;4.35;;;1.50;;
55082;SDS011;40978;52.850;6.506;2023-06-04T00:11:45;5.22;;;1.63;;
55082;SDS011;40978;52.850;6.506;2023-06-04T00:14:11;3.58;;;2.00;;
55082;SDS011;40978;52.850;6.506;2023-06-04T00:16:38;5.65;;;1.80;;
55082;SDS011;40978;52.850;6.506;2023-06-04T00:19:03;4.15;;;1.98;;
55082;SDS011;40978;52.850;6.506;2023-06-04T00:21:29;4.95;;;1.83;;
55082;SDS011;40978;52.850;6.506;2023-06-04T00:23:55;4.35;;;1.77;;
55082;SDS011;40978;52.850;6.506;2023-06-04T00:26:20;5.68;;;1.95;;
55082;SDS011;40978;52.850;6.506;2023-06-04T00:28:46;2.22;;;1.85;;
55082;SDS011;40978;52.850;6.506;2023-06-04T00:31:12;5.22;;;2.42;;
55082;SDS011;40978;52.850;6.506;2023-06-04T00:33:41;5.03;;;2.33;;
55082;SDS011;40978;52.850;6.506;2023-06-04T00:36:07;5.38;;;2.60;;
55082;SDS011;40978;52.850;6.506;2023-06-04T00:38:33;4.55;;;2.20;;
55082;SDS011;40978;52.850;6.506;2023-06-04T00:40:58;5.47;;;2.20;;
55082;SDS011;40978;52.850;6.506;2023-06-04T00:43:24;7.07;;;2.75;;
55082;SDS011;40978;52.850;6.506;2023-06-04T00:45:53;7.38;;;3.22;;
55082;SDS011;40978;52.850;6.506;2023-06-04T00:48:19;7.05;;;2.95;;
55082;SDS011;40978;52.850;6.506;2023-06-04T00:50:46;4.00;;;2.42;;
55082;SDS011;40978;52.850;6.506;2023-06-04T00:53:14;9.52;;;3.15;;
55082;SDS011;40978;52.850;6.506;2023-06-04T00:55:40;5.32;;;2.58;;
55082;SDS011;40978;52.850;6.506;2023-06-04T00:58:06;7.47;;;3.30;;
55082;SDS011;40978;52.850;6.506;2023-06-04T01:00:34;6.18;;;2.85;;
55082;SDS011;40978;52.850;6.506;2023-06-04T01:03:03;4.70;;;2.88;;
55082;SDS011;40978;52.850;6.506;2023-06-04T01:08:08;6.55;;;2.45;;
55082;SDS011;40978;52.850;6.506;2023-06-04T01:10:34;7.95;;;2.90;;
55082;SDS011;40978;52.850;6.506;2023-06-04T01:13:00;7.50;;;2.70;;
55082;SDS011;40978;52.850;6.506;2023-06-04T01:15:27;7.15;;;2.80;;
55082;SDS011;40978;52.850;6.506;2023-06-04T01:17:54;6.05;;;3.10;;
55082;SDS011;40978;52.850;6.506;2023-06-04T01:26:10;8.85;;;3.40;;
55082;SDS011;40978;52.850;6.506;2023-06-04T01:28:37;9.75;;;3.60;;
55082;SDS011;40978;52.850;6.506;2023-06-04T01:31:04;7.40;;;3.67;;
55082;SDS011;40978;52.850;6.506;2023-06-04T01:33:33;8.50;;;3.35;;
55082;SDS011;40978;52.850;6.506;2023-06-04T01:35:59;6.55;;;3.60;;
55082;SDS011;40978;52.850;6.506;2023-06-04T01:38:26;8.02;;;3.85;;
55082;SDS011;40978;52.850;6.506;2023-06-04T01:40:52;7.75;;;3.83;;
55082;SDS011;40978;52.850;6.506;2023-06-04T01:43:21;9.15;;;3.80;;
55082;SDS011;40978;52.850;6.506;2023-06-04T01:45:48;10.20;;;4.13;;
55082;SDS011;40978;52.850;6.506;2023-06-04T01:48:16;10.73;;;4.00;;
55082;SDS011;40978;52.850;6.506;2023-06-04T01:50:45;8.77;;;3.95;;
55082;SDS011;40978;52.850;6.506;2023-06-04T01:53:11;9.85;;;4.40;;
55082;SDS011;40978;52.850;6.506;2023-06-04T01:55:37;7.00;;;4.25;;
55082;SDS011;40978;52.850;6.506;2023-06-04T01:58:02;8.60;;;4.10;;
55082;SDS011;40978;52.850;6.506;2023-06-04T02:00:28;6.35;;;4.10;;
55082;SDS011;40978;52.850;6.506;2023-06-04T02:02:54;8.43;;;3.97;;
55082;SDS011;40978;52.850;6.506;2023-06-04T02:05:21;13.27;;;4.43;;
55082;SDS011;40978;52.850;6.506;2023-06-04T02:07:46;8.77;;;4.43;;
55082;SDS011;40978;52.850;6.506;2023-06-04T02:10:13;8.63;;;5.03;;
55082;SDS011;40978;52.850;6.506;2023-06-04T02:12:53;10.48;;;4.70;;
55082;SDS011;40978;52.850;6.506;2023-06-04T02:15:19;8.30;;;4.15;;
55082;SDS011;40978;52.850;6.506;2023-06-04T02:17:45;8.70;;;4.60;;
55082;SDS011;40978;52.850;6.506;2023-06-04T02:20:12;9.75;;;4.90;;
55082;SDS011;40978;52.850;6.506;2023-06-04T02:22:38;11.95;;;5.70;;
55082;SDS011;40978;52.850;6.506;2023-06-04T02:25:04;11.93;;;5.75;;
55082;SDS011;40978;52.850;6.506;2023-06-04T02:27:30;10.80;;;5.80;;
55082;SDS011;40978;52.850;6.506;2023-06-04T02:29:56;9.82;;;5.57;;
55082;SDS011;40978;52.850;6.506;2023-06-04T02:32:22;12.57;;;5.93;;
55082;SDS011;40978;52.850;6.506;2023-06-04T02:34:48;13.60;;;6.50;;
55082;SDS011;40978;52.850;6.506;2023-06-04T02:37:17;12.18;;;6.30;;
55082;SDS011;40978;52.850;6.506;2023-06-04T02:39:46;10.00;;;6.55;;
55082;SDS011;40978;52.850;6.506;2023-06-04T02:42:11;12.35;;;6.80;;
55082;SDS011;40978;52.850;6.506;2023-06-04T02:44:37;16.48;;;6.75;;
55082;SDS011;40978;52.850;6.506;2023-06-04T02:47:03;8.52;;;6.07;;
55082;SDS011;40978;52.850;6.506;2023-06-04T02:49:29;13.95;;;6.70;;
55082;SDS011;40978;52.850;6.506;2023-06-04T02:51:55;13.32;;;6.18;;
55082;SDS011;40978;52.850;6.506;2023-06-04T02:54:20;8.93;;;5.68;;
55082;SDS011;40978;52.850;6.506;2023-06-04T02:56:46;10.60;;;6.05;;
55082;SDS011;40978;52.850;6.506;2023-06-04T02:59:14;13.48;;;6.25;;
55082;SDS011;40978;52.850;6.506;2023-06-04T03:01:40;13.18;;;6.18;;
55082;SDS011;40978;52.850;6.506;2023-06-04T03:04:06;14.57;;;7.22;;
55082;SDS011;40978;52.850;6.506;2023-06-04T03:06:35;12.48;;;5.68;;
55082;SDS011;40978;52.850;6.506;2023-06-04T03:09:03;11.38;;;6.10;;
55082;SDS011;40978;52.850;6.506;2023-06-04T03:11:29;16.10;;;6.75;;
55082;SDS011;40978;52.850;6.506;2023-06-04T03:13:55;14.57;;;6.78;;
55082;SDS011;40978;52.850;6.506;2023-06-04T03:16:21;13.43;;;6.15;;
55082;SDS011;40978;52.850;6.506;2023-06-04T03:18:47;15.82;;;6.45;;
55082;SDS011;40978;52.850;6.506;2023-06-04T03:21:13;15.23;;;6.25;;
55082;SDS011;40978;52.850;6.506;2023-06-04T03:23:38;16.15;;;6.40;;
55082;SDS011;40978;52.850;6.506;2023-06-04T03:26:05;15.63;;;6.60;;
55082;SDS011;40978;52.850;6.506;2023-06-04T03:28:31;14.70;;;6.95;;
55082;SDS011;40978;52.850;6.506;2023-06-04T03:30:58;11.75;;;6.80;;
55082;SDS011;40978;52.850;6.506;2023-06-04T03:33:24;14.48;;;6.97;;
55082;SDS011;40978;52.850;6.506;2023-06-04T03:35:50;14.23;;;6.70;;
55082;SDS011;40978;52.850;6.506;2023-06-04T03:38:17;16.30;;;8.13;;
55082;SDS011;40978;52.850;6.506;2023-06-04T03:40:48;14.63;;;7.57;;
55082;SDS011;40978;52.850;6.506;2023-06-04T03:43:15;13.43;;;6.93;;
55082;SDS011;40978;52.850;6.506;2023-06-04T03:45:41;18.13;;;7.57;;
55082;SDS011;40978;52.850;6.506;2023-06-04T03:48:07;14.23;;;6.68;;
55082;SDS011;40978;52.850;6.506;2023-06-04T03:50:33;14.43;;;6.68;;
55082;SDS011;40978;52.850;6.506;2023-06-04T03:52:58;17.45;;;7.32;;
55082;SDS011;40978;52.850;6.506;2023-06-04T03:55:25;15.15;;;7.00;;
55082;SDS011;40978;52.850;6.506;2023-06-04T03:57:50;15.30;;;6.68;;
55082;SDS011;40978;52.850;6.506;2023-06-04T04:00:16;16.08;;;7.35;;
55082;SDS011;40978;52.850;6.506;2023-06-04T04:02:43;17.67;;;6.60;;
55082;SDS011;40978;52.850;6.506;2023-06-04T04:05:09;19.27;;;6.80;;
55082;SDS011;40978;52.850;6.506;2023-06-04T04:07:36;14.52;;;6.25;;
55082;SDS011;40978;52.850;6.506;2023-06-04T04:10:02;15.68;;;6.53;;
55082;SDS011;40978;52.850;6.506;2023-06-04T04:12:28;15.13;;;6.20;;
55082;SDS011;40978;52.850;6.506;2023-06-04T04:14:53;11.73;;;6.57;;
55082;SDS011;40978;52.850;6.506;2023-06-04T04:17:20;12.50;;;6.07;;
55082;SDS011;40978;52.850;6.506;2023-06-04T04:19:46;14.15;;;5.28;;
55082;SDS011;40978;52.850;6.506;2023-06-04T04:22:12;11.07;;;5.65;;
55082;SDS011;40978;52.850;6.506;2023-06-04T04:24:42;12.40;;;5.30;;
55082;SDS011;40978;52.850;6.506;2023-06-04T04:27:08;12.43;;;5.80;;
55082;SDS011;40978;52.850;6.506;2023-06-04T04:29:40;11.40;;;5.93;;
55082;SDS011;40978;52.850;6.506;2023-06-04T04:32:07;11.73;;;6.90;;
55082;SDS011;40978;52.850;6.506;2023-06-04T04:34:36;13.88;;;5.85;;
55082;SDS011;40978;52.850;6.506;2023-06-04T04:37:04;14.45;;;6.40;;
55082;SDS011;40978;52.850;6.506;2023-06-04T04:39:33;18.30;;;6.32;;
55082;SDS011;40978;52.850;6.506;2023-06-04T04:42:00;20.15;;;6.72;;
55082;SDS011;40978;52.850;6.506;2023-06-04T04:44:26;19.23;;;6.43;;
55082;SDS011;40978;52.850;6.506;2023-06-04T04:46:52;16.70;;;6.57;;
55082;SDS011;40978;52.850;6.506;2023-06-04T04:49:17;12.05;;;5.60;;
55082;SDS011;40978;52.850;6.506;2023-06-04T04:51:43;17.42;;;6.72;;
55082;SDS011;40978;52.850;6.506;2023-06-04T04:54:09;15.60;;;6.10;;
55082;SDS011;40978;52.850;6.506;2023-06-04T04:56:35;17.35;;;6.30;;
55082;SDS011;40978;52.850;6.506;2023-06-04T04:59:01;16.13;;;5.35;;
55082;SDS011;40978;52.850;6.506;2023-06-04T05:01:27;15.15;;;5.60;;
55082;SDS011;40978;52.850;6.506;2023-06-04T05:03:52;13.27;;;5.63;;
55082;SDS011;40978;52.850;6.506;2023-06-04T05:06:18;13.18;;;4.80;;
55082;SDS011;40978;52.850;6.506;2023-06-04T05:08:47;12.70;;;4.72;;
55082;SDS011;40978;52.850;6.506;2023-06-04T05:11:13;11.93;;;4.38;;
55082;SDS011;40978;52.850;6.506;2023-06-04T05:13:39;11.32;;;5.78;;
55082;SDS011;40978;52.850;6.506;2023-06-04T05:16:07;12.13;;;5.10;;
55082;SDS011;40978;52.850;6.506;2023-06-04T05:18:33;10.40;;;3.80;;
55082;SDS011;40978;52.850;6.506;2023-06-04T05:20:59;11.93;;;4.38;;
55082;SDS011;40978;52.850;6.506;2023-06-04T05:23:27;8.23;;;4.10;;
55082;SDS011;40978;52.850;6.506;2023-06-04T05:25:55;13.18;;;4.38;;
55082;SDS011;40978;52.850;6.506;2023-06-04T05:28:22;10.23;;;4.65;;
55082;SDS011;40978;52.850;6.506;2023-06-04T05:30:53;8.32;;;3.90;;
55082;SDS011;40978;52.850;6.506;2023-06-04T05:33:27;11.65;;;4.78;;
55082;SDS011;40978;52.850;6.506;2023-06-04T05:35:53;8.40;;;3.67;;
55082;SDS011;40978;52.850;6.506;2023-06-04T05:38:20;7.07;;;3.92;;
55082;SDS011;40978;52.850;6.506;2023-06-04T05:40:54;9.00;;;4.72;;
55082;SDS011;40978;52.850;6.506;2023-06-04T05:43:20;10.80;;;4.30;;
55082;SDS011;40978;52.850;6.506;2023-06-04T05:45:47;10.23;;;4.28;;
55082;SDS011;40978;52.850;6.506;2023-06-04T05:48:13;9.30;;;4.45;;
55082;SDS011;40978;52.850;6.506;2023-06-04T05:50:38;9.85;;;4.50;;
55082;SDS011;40978;52.850;6.506;2023-06-04T05:53:04;11.98;;;4.60;;
55082;SDS011;40978;52.850;6.506;2023-06-04T05:55:30;9.85;;;5.18;;
55082;SDS011;40978;52.850;6.506;2023-06-04T05:57:56;11.52;;;5.63;;
55082;SDS011;40978;52.850;6.506;2023-06-04T06:00:21;9.35;;;4.88;;
55082;SDS011;40978;52.850;6.506;2023-06-04T06:02:51;9.75;;;5.22;;
55082;SDS011;40978;52.850;6.506;2023-06-04T06:05:21;10.70;;;5.53;;
55082;SDS011;40978;52.850;6.506;2023-06-04T06:07:47;14.65;;;6.22;;
55082;SDS011;40978;52.850;6.506;2023-06-04T06:10:13;10.50;;;5.53;;
55082;SDS011;40978;52.850;6.506;2023-06-04T06:12:40;11.25;;;5.05;;
55082;SDS011;40978;52.850;6.506;2023-06-04T06:15:06;12.55;;;5.65;;
55082;SDS011;40978;52.850;6.506;2023-06-04T06:17:33;9.18;;;5.15;;
55082;SDS011;40978;52.850;6.506;2023-06-04T06:19:59;10.80;;;5.22;;
55082;SDS011;40978;52.850;6.506;2023-06-04T06:22:25;10.93;;;5.05;;
55082;SDS011;40978;52.850;6.506;2023-06-04T06:24:51;9.95;;;5.47;;
55082;SDS011;40978;52.850;6.506;2023-06-04T06:27:16;13.20;;;5.18;;
55082;SDS011;40978;52.850;6.506;2023-06-04T06:29:42;9.13;;;4.53;;
55082;SDS011;40978;52.850;6.506;2023-06-04T06:32:09;10.15;;;4.80;;
55082;SDS011;40978;52.850;6.506;2023-06-04T06:34:35;13.95;;;4.78;;
55082;SDS011;40978;52.850;6.506;2023-06-04T06:37:02;10.00;;;4.80;;
55082;SDS011;40978;52.850;6.506;2023-06-04T06:39:28;11.32;;;4.88;;
55082;SDS011;40978;52.850;6.506;2023-06-04T06:41:54;11.20;;;4.85;;
55082;SDS011;40978;52.850;6.506;2023-06-04T06:44:20;8.77;;;4.70;;
55082;SDS011;40978;52.850;6.506;2023-06-04T06:46:46;11.35;;;4.60;;
55082;SDS011;40978;52.850;6.506;2023-06-04T06:49:13;10.32;;;3.90;;
55082;SDS011;40978;52.850;6.506;2023-06-04T06:51:40;10.43;;;4.30;;
55082;SDS011;40978;52.850;6.506;2023-06-04T06:54:09;11.98;;;3.67;;
55082;SDS011;40978;52.850;6.506;2023-06-04T06:56:35;10.18;;;3.65;;
55082;SDS011;40978;52.850;6.506;2023-06-04T06:59:01;9.77;;;3.13;;
55082;SDS011;40978;52.850;6.506;2023-06-04T07:01:27;7.55;;;3.15;;
55082;SDS011;40978;52.850;6.506;2023-06-04T07:03:53;6.75;;;2.70;;
55082;SDS011;40978;52.850;6.506;2023-06-04T07:06:18;8.10;;;2.75;;
55082;SDS011;40978;52.850;6.506;2023-06-04T07:08:45;7.20;;;2.72;;
55082;SDS011;40978;52.850;6.506;2023-06-04T07:11:13;7.00;;;2.60;;
55082;SDS011;40978;52.850;6.506;2023-06-04T07:13:39;7.25;;;2.60;;
55082;SDS011;40978;52.850;6.506;2023-06-04T07:16:05;9.23;;;2.70;;
55082;SDS011;40978;52.850;6.506;2023-06-04T07:18:31;6.35;;;2.85;;
55082;SDS011;40978;52.850;6.506;2023-06-04T07:20:57;6.97;;;2.50;;
55082;SDS011;40978;52.850;6.506;2023-06-04T07:23:23;8.50;;;2.25;;
55082;SDS011;40978;52.850;6.506;2023-06-04T07:25:49;5.93;;;2.30;;
55082;SDS011;40978;52.850;6.506;2023-06-04T07:28:17;8.05;;;1.75;;
55082;SDS011;40978;52.850;6.506;2023-06-04T07:30:45;8.25;;;1.83;;
55082;SDS011;40978;52.850;6.506;2023-06-04T07:33:14;6.75;;;2.13;;
55082;SDS011;40978;52.850;6.506;2023-06-04T07:35:40;7.10;;;1.92;;
55082;SDS011;40978;52.850;6.506;2023-06-04T07:38:05;7.13;;;2.38;;
55082;SDS011;40978;52.850;6.506;2023-06-04T07:40:31;8.50;;;2.60;;
55082;SDS011;40978;52.850;6.506;2023-06-04T07:42:57;5.85;;;1.85;;
55082;SDS011;40978;52.850;6.506;2023-06-04T07:45:23;6.88;;;1.95;;
55082;SDS011;40978;52.850;6.506;2023-06-04T07:47:49;5.85;;;1.90;;
55082;SDS011;40978;52.850;6.506;2023-06-04T07:50:17;8.95;;;1.98;;
55082;SDS011;40978;52.850;6.506;2023-06-04T07:52:43;6.75;;;1.90;;
55082;SDS011;40978;52.850;6.506;2023-06-04T07:55:09;9.63;;;2.22;;
55082;SDS011;40978;52.850;6.506;2023-06-04T07:57:35;5.68;;;1.65;;
55082;SDS011;40978;52.850;6.506;2023-06-04T08:00:01;9.07;;;1.98;;
55082;SDS011;40978;52.850;6.506;2023-06-04T08:02:29;7.90;;;2.03;;
55082;SDS011;40978;52.850;6.506;2023-06-04T08:04:55;9.02;;;4.72;;
55082;SDS011;40978;52.850;6.506;2023-06-04T08:07:21;9.40;;;1.83;;
55082;SDS011;40978;52.850;6.506;2023-06-04T08:09:47;6.45;;;1.45;;
55082;SDS011;40978;52.850;6.506;2023-06-04T08:12:13;6.25;;;1.42;;
55082;SDS011;40978;52.850;6.506;2023-06-04T08:14:38;5.13;;;1.70;;
55082;SDS011;40978;52.850;6.506;2023-06-04T08:17:04;5.95;;;1.83;;
55082;SDS011;40978;52.850;6.506;2023-06-04T08:19:30;6.57;;;1.90;;
55082;SDS011;40978;52.850;6.506;2023-06-04T08:21:56;5.53;;;1.40;;
55082;SDS011;40978;52.850;6.506;2023-06-04T08:24:21;9.07;;;2.55;;
55082;SDS011;40978;52.850;6.506;2023-06-04T08:26:47;6.88;;;1.85;;
55082;SDS011;40978;52.850;6.506;2023-06-04T08:29:13;6.30;;;1.40;;
55082;SDS011;40978;52.850;6.506;2023-06-04T08:31:39;4.82;;;1.15;;
55082;SDS011;40978;52.850;6.506;2023-06-04T08:34:04;9.35;;;1.90;;
55082;SDS011;40978;52.850;6.506;2023-06-04T08:36:30;8.10;;;1.50;;
55082;SDS011;40978;52.850;6.506;2023-06-04T08:38:57;7.30;;;1.90;;
55082;SDS011;40978;52.850;6.506;2023-06-04T08:43:54;4.03;;;1.10;;
55082;SDS011;40978;52.850;6.506;2023-06-04T08:46:21;4.93;;;1.45;;
55082;SDS011;40978;52.850;6.506;2023-06-04T08:48:49;4.88;;;1.42;;
55082;SDS011;40978;52.850;6.506;2023-06-04T08:51:19;6.45;;;1.70;;
55082;SDS011;40978;52.850;6.506;2023-06-04T08:53:48;5.78;;;1.48;;
55082;SDS011;40978;52.850;6.506;2023-06-04T08:56:19;6.60;;;1.45;;
55082;SDS011;40978;52.850;6.506;2023-06-04T08:58:47;4.85;;;1.42;;
55082;SDS011;40978;52.850;6.506;2023-06-04T09:01:13;6.50;;;1.48;;
55082;SDS011;40978;52.850;6.506;2023-06-04T09:03:39;4.03;;;1.35;;
55082;SDS011;40978;52.850;6.506;2023-06-04T09:06:06;3.30;;;0.98;;
55082;SDS011;40978;52.850;6.506;2023-06-04T09:08:34;3.00;;;0.68;;
55082;SDS011;40978;52.850;6.506;2023-06-04T09:11:05;3.90;;;1.05;;
55082;SDS011;40978;52.850;6.506;2023-06-04T09:13:35;3.05;;;0.65;;
55082;SDS011;40978;52.850;6.506;2023-06-04T09:16:02;3.88;;;0.90;;
55082;SDS011;40978;52.850;6.506;2023-06-04T09:18:28;4.32;;;0.90;;
55082;SDS011;40978;52.850;6.506;2023-06-04T09:21:05;4.72;;;1.00;;
55082;SDS011;40978;52.850;6.506;2023-06-04T09:23:50;4.40;;;1.10;;
55082;SDS011;40978;52.850;6.506;2023-06-04T09:26:16;3.60;;;1.20;;
55082;SDS011;40978;52.850;6.506;2023-06-04T09:28:45;4.43;;;1.42;;
55082;SDS011;40978;52.850;6.506;2023-06-04T09:31:14;4.55;;;1.33;;
55082;SDS011;40978;52.850;6.506;2023-06-04T09:33:48;3.20;;;0.85;;
55082;SDS011;40978;52.850;6.506;2023-06-04T09:36:17;5.28;;;1.10;;
55082;SDS011;40978;52.850;6.506;2023-06-04T09:38:43;4.78;;;1.15;;
55082;SDS011;40978;52.850;6.506;2023-06-04T09:44:03;3.75;;;1.13;;
55082;SDS011;40978;52.850;6.506;2023-06-04T09:46:30;3.45;;;1.33;;
55082;SDS011;40978;52.850;6.506;2023-06-04T09:49:00;3.72;;;0.80;;
55082;SDS011;40978;52.850;6.506;2023-06-04T09:51:28;5.68;;;1.15;;
55082;SDS011;40978;52.850;6.506;2023-06-04T09:53:54;3.78;;;1.10;;
55082;SDS011;40978;52.850;6.506;2023-06-04T09:56:22;4.20;;;0.93;;
55082;SDS011;40978;52.850;6.506;2023-06-04T09:58:53;5.20;;;1.23;;
55082;SDS011;40978;52.850;6.506;2023-06-04T10:01:25;3.47;;;1.10;;
55082;SDS011;40978;52.850;6.506;2023-06-04T10:03:53;3.67;;;1.20;;
55082;SDS011;40978;52.850;6.506;2023-06-04T10:06:20;2.35;;;0.93;;
55082;SDS011;40978;52.850;6.506;2023-06-04T10:08:47;4.38;;;1.00;;
55082;SDS011;40978;52.850;6.506;2023-06-04T10:11:15;2.63;;;1.00;;
55082;SDS011;40978;52.850;6.506;2023-06-04T10:13:48;4.85;;;0.85;;
55082;SDS011;40978;52.850;6.506;2023-06-04T10:16:19;2.67;;;0.90;;
55082;SDS011;40978;52.850;6.506;2023-06-04T10:18:45;2.95;;;0.80;;
55082;SDS011;40978;52.850;6.506;2023-06-04T10:21:13;3.58;;;0.80;;
55082;SDS011;40978;52.850;6.506;2023-06-04T10:23:39;2.00;;;1.00;;
55082;SDS011;40978;52.850;6.506;2023-06-04T10:26:09;2.92;;;0.82;;
55082;SDS011;40978;52.850;6.506;2023-06-04T10:28:42;3.35;;;0.75;;
55082;SDS011;40978;52.850;6.506;2023-06-04T10:31:11;4.30;;;0.82;;
55082;SDS011;40978;52.850;6.506;2023-06-04T10:33:38;2.42;;;0.73;;
55082;SDS011;40978;52.850;6.506;2023-06-04T10:36:17;3.75;;;0.80;;
55082;SDS011;40978;52.850;6.506;2023-06-04T10:38:54;5.53;;;1.10;;
55082;SDS011;40978;52.850;6.506;2023-06-04T10:41:21;2.80;;;0.80;;
55082;SDS011;40978;52.850;6.506;2023-06-04T10:43:48;2.65;;;0.77;;
55082;SDS011;40978;52.850;6.506;2023-06-04T10:46:15;2.00;;;0.75;;
55082;SDS011;40978;52.850;6.506;2023-06-04T10:48:46;2.85;;;0.88;;
55082;SDS011;40978;52.850;6.506;2023-06-04T10:51:34;2.42;;;0.82;;
55082;SDS011;40978;52.850;6.506;2023-06-04T10:56:29;2.78;;;0.77;;
55082;SDS011;40978;52.850;6.506;2023-06-04T10:58:57;1.55;;;0.95;;
55082;SDS011;40978;52.850;6.506;2023-06-04T11:01:27;2.33;;;0.70;;
55082;SDS011;40978;52.850;6.506;2023-06-04T11:03:54;1.70;;;0.70;;
55082;SDS011;40978;52.850;6.506;2023-06-04T11:06:21;5.00;;;1.08;;
55082;SDS011;40978;52.850;6.506;2023-06-04T11:08:47;2.10;;;0.82;;
55082;SDS011;40978;52.850;6.506;2023-06-04T11:11:14;2.35;;;1.00;;
55082;SDS011;40978;52.850;6.506;2023-06-04T11:13:41;4.72;;;0.80;;
55082;SDS011;40978;52.850;6.506;2023-06-04T11:16:19;3.33;;;0.93;;
55082;SDS011;40978;52.850;6.506;2023-06-04T11:18:57;1.38;;;0.70;;
55082;SDS011;40978;52.850;6.506;2023-06-04T11:21:27;2.13;;;0.77;;
55082;SDS011;40978;52.850;6.506;2023-06-04T11:23:59;4.32;;;0.80;;
55082;SDS011;40978;52.850;6.506;2023-06-04T11:26:34;4.00;;;0.80;;
55082;SDS011;40978;52.850;6.506;2023-06-04T11:29:02;2.58;;;0.88;;
55082;SDS011;40978;52.850;6.506;2023-06-04T11:31:44;1.92;;;0.70;;
55082;SDS011;40978;52.850;6.506;2023-06-04T11:34:21;2.38;;;0.80;;
55082;SDS011;40978;52.850;6.506;2023-06-04T11:37:07;2.40;;;0.98;;
55082;SDS011;40978;52.850;6.506;2023-06-04T11:39:36;2.25;;;0.60;;
55082;SDS011;40978;52.850;6.506;2023-06-04T11:42:04;2.80;;;0.90;;
55082;SDS011;40978;52.850;6.506;2023-06-04T11:44:32;2.90;;;1.00;;
55082;SDS011;40978;52.850;6.506;2023-06-04T11:46:58;2.53;;;0.82;;
55082;SDS011;40978;52.850;6.506;2023-06-04T11:49:24;3.70;;;0.90;;
55082;SDS011;40978;52.850;6.506;2023-06-04T11:51:51;5.55;;;1.00;;
55082;SDS011;40978;52.850;6.506;2023-06-04T11:54:18;1.98;;;0.75;;
55082;SDS011;40978;52.850;6.506;2023-06-04T11:56:51;2.47;;;0.70;;
55082;SDS011;40978;52.850;6.506;2023-06-04T11:59:17;1.98;;;0.80;;
55082;SDS011;40978;52.850;6.506;2023-06-04T12:01:44;1.70;;;0.85;;
55082;SDS011;40978;52.850;6.506;2023-06-04T12:04:18;3.15;;;0.75;;
55082;SDS011;40978;52.850;6.506;2023-06-04T12:07:00;2.15;;;0.73;;
55082;SDS011;40978;52.850;6.506;2023-06-04T12:09:33;3.38;;;1.10;;
55082;SDS011;40978;52.850;6.506;2023-06-04T12:12:05;2.65;;;0.90;;
55082;SDS011;40978;52.850;6.506;2023-06-04T12:14:32;2.58;;;1.13;;
55082;SDS011;40978;52.850;6.506;2023-06-04T12:16:59;3.92;;;0.80;;
55082;SDS011;40978;52.850;6.506;2023-06-04T12:19:32;2.88;;;0.98;;
55082;SDS011;40978;52.850;6.506;2023-06-04T12:21:59;4.10;;;0.93;;
55082;SDS011;40978;52.850;6.506;2023-06-04T12:24:30;2.50;;;0.68;;
55082;SDS011;40978;52.850;6.506;2023-06-04T12:29:29;5.68;;;2.13;;
55082;SDS011;40978;52.850;6.506;2023-06-04T12:32:08;4.43;;;1.20;;
55082;SDS011;40978;52.850;6.506;2023-06-04T12:34:36;5.18;;;1.15;;
55082;SDS011;40978;52.850;6.506;2023-06-04T12:37:02;4.70;;;1.10;;
55082;SDS011;40978;52.850;6.506;2023-06-04T12:39:31;4.30;;;0.93;;
55082;SDS011;40978;52.850;6.506;2023-06-04T12:41:57;4.40;;;1.00;;
55082;SDS011;40978;52.850;6.506;2023-06-04T12:44:23;3.83;;;1.13;;
55082;SDS011;40978;52.850;6.506;2023-06-04T12:46:49;4.65;;;1.27;;
55082;SDS011;40978;52.850;6.506;2023-06-04T12:49:15;4.00;;;1.17;;
55082;SDS011;40978;52.850;6.506;2023-06-04T12:51:41;5.72;;;2.90;;
55082;SDS011;40978;52.850;6.506;2023-06-04T12:54:07;3.72;;;1.15;;
55082;SDS011;40978;52.850;6.506;2023-06-04T12:56:33;2.45;;;1.00;;
55082;SDS011;40978;52.850;6.506;2023-06-04T12:59:01;7.55;;;2.53;;
55082;SDS011;40978;52.850;6.506;2023-06-04T13:01:35;3.40;;;1.10;;
55082;SDS011;40978;52.850;6.506;2023-06-04T13:04:02;3.75;;;0.98;;
55082;SDS011;40978;52.850;6.506;2023-06-04T13:06:29;3.55;;;0.85;;
55082;SDS011;40978;52.850;6.506;2023-06-04T13:08:55;2.67;;;0.93;;
55082;SDS011;40978;52.850;6.506;2023-06-04T13:11:20;5.32;;;1.30;;
55082;SDS011;40978;52.850;6.506;2023-06-04T13:13:47;3.95;;;1.10;;
55082;SDS011;40978;52.850;6.506;2023-06-04T13:16:13;2.95;;;0.85;;
55082;SDS011;40978;52.850;6.506;2023-06-04T13:18:39;3.30;;;1.10;;
55082;SDS011;40978;52.850;6.506;2023-06-04T13:21:05;3.50;;;1.20;;
55082;SDS011;40978;52.850;6.506;2023-06-04T13:23:31;6.90;;;0.90;;
55082;SDS011;40978;52.850;6.506;2023-06-04T13:25:56;2.75;;;1.05;;
55082;SDS011;40978;52.850;6.506;2023-06-04T13:28:23;2.75;;;0.90;;
55082;SDS011;40978;52.850;6.506;2023-06-04T13:30:49;3.53;;;1.25;;
55082;SDS011;40978;52.850;6.506;2023-06-04T13:33:14;3.13;;;1.48;;
55082;SDS011;40978;52.850;6.506;2023-06-04T13:35:41;2.70;;;1.02;;
55082;SDS011;40978;52.850;6.506;2023-06-04T13:38:09;3.95;;;1.45;;
55082;SDS011;40978;52.850;6.506;2023-06-04T13:40:37;5.35;;;1.40;;
55082;SDS011;40978;52.850;6.506;2023-06-04T13:43:04;2.92;;;0.98;;
55082;SDS011;40978;52.850;6.506;2023-06-04T13:45:32;4.85;;;1.05;;
55082;SDS011;40978;52.850;6.506;2023-06-04T13:47:58;3.78;;;1.20;;
55082;SDS011;40978;52.850;6.506;2023-06-04T13:50:28;1.60;;;0.68;;
55082;SDS011;40978;52.850;6.506;2023-06-04T13:52:53;4.00;;;1.02;;
55082;SDS011;40978;52.850;6.506;2023-06-04T13:55:19;4.50;;;1.35;;
55082;SDS011;40978;52.850;6.506;2023-06-04T13:57:45;3.97;;;1.10;;
55082;SDS011;40978;52.850;6.506;2023-06-04T14:00:11;3.03;;;1.10;;
55082;SDS011;40978;52.850;6.506;2023-06-04T14:02:39;3.75;;;1.00;;
55082;SDS011;40978;52.850;6.506;2023-06-04T14:05:04;3.38;;;1.00;;
55082;SDS011;40978;52.850;6.506;2023-06-04T14:07:30;4.72;;;1.33;;
55082;SDS011;40978;52.850;6.506;2023-06-04T14:09:56;5.85;;;1.30;;
55082;SDS011;40978;52.850;6.506;2023-06-04T14:12:23;3.50;;;1.30;;
55082;SDS011;40978;52.850;6.506;2023-06-04T14:14:49;4.25;;;1.08;;
55082;SDS011;40978;52.850;6.506;2023-06-04T14:17:16;3.67;;;1.30;;
55082;SDS011;40978;52.850;6.506;2023-06-04T14:19:41;6.78;;;1.27;;
55082;SDS011;40978;52.850;6.506;2023-06-04T14:22:07;2.40;;;1.17;;
55082;SDS011;40978;52.850;6.506;2023-06-04T14:24:35;2.92;;;1.33;;
55082;SDS011;40978;52.850;6.506;2023-06-04T14:27:00;3.10;;;1.52;;
55082;SDS011;40978;52.850;6.506;2023-06-04T14:29:30;4.78;;;1.02;;
55082;SDS011;40978;52.850;6.506;2023-06-04T14:31:56;4.10;;;1.08;;
55082;SDS011;40978;52.850;6.506;2023-06-04T14:34:22;4.07;;;1.10;;
55082;SDS011;40978;52.850;6.506;2023-06-04T14:36:48;4.80;;;1.30;;
55082;SDS011;40978;52.850;6.506;2023-06-04T14:39:14;3.13;;;1.38;;
55082;SDS011;40978;52.850;6.506;2023-06-04T14:41:39;3.10;;;1.25;;
55082;SDS011;40978;52.850;6.506;2023-06-04T14:44:05;3.60;;;1.00;;
55082;SDS011;40978;52.850;6.506;2023-06-04T14:46:31;4.50;;;1.30;;
55082;SDS011;40978;52.850;6.506;2023-06-04T14:48:57;5.55;;;1.25;;
55082;SDS011;40978;52.850;6.506;2023-06-04T14:51:23;4.50;;;1.63;;
55082;SDS011;40978;52.850;6.506;2023-06-04T14:53:49;5.53;;;1.52;;
55082;SDS011;40978;52.850;6.506;2023-06-04T14:56:20;3.42;;;1.10;;
55082;SDS011;40978;52.850;6.506;2023-06-04T14:58:50;3.58;;;1.13;;
55082;SDS011;40978;52.850;6.506;2023-06-04T15:01:16;3.90;;;1.35;;
55082;SDS011;40978;52.850;6.506;2023-06-04T15:03:42;2.90;;;1.30;;